createdAt,value
2019-01-23T00:01:29.198Z,47.48
2019-01-23T00:03:59.164Z,55.85
2019-01-23T00:06:29.154Z,43.20
2019-01-23T00:08:59.798Z,46.13
2019-01-23T00:11:30.294Z,43.28
2019-01-23T00:14:00.381Z,39.78
2019-01-23T00:16:30.562Z,44.93
2019-01-23T00:19:00.528Z,40.75
2019-01-23T00:21:30.715Z,43.55
2019-01-23T00:24:00.783Z,47.65
2019-01-23T00:26:31.080Z,38.63
2019-01-23T00:29:00.972Z,47.90
2019-01-23T00:31:31.528Z,59.67
2019-01-23T00:34:01.806Z,44.98
2019-01-23T00:36:32.235Z,46.35
2019-01-23T00:39:02.459Z,48.70
2019-01-23T00:41:32.738Z,47.70
2019-01-23T00:44:02.652Z,47.27
2019-01-23T00:46:33.051Z,46.80
2019-01-23T00:49:03.218Z,43.40
2019-01-23T00:51:33.861Z,46.23
2019-01-23T00:54:04.260Z,46.75
2019-01-23T00:56:34.182Z,55.58
2019-01-23T00:59:04.404Z,61.63
2019-01-23T01:01:34.399Z,40.40
2019-01-23T01:04:04.627Z,54.85
2019-01-23T01:06:34.616Z,49.70
2019-01-23T01:09:08.405Z,53.80
2019-01-23T01:11:38.768Z,49.55
2019-01-23T01:14:08.839Z,50.25
2019-01-23T01:16:38.829Z,47.55
2019-01-23T01:23:04.345Z,48.05
2019-01-23T01:25:34.422Z,50.35
2019-01-23T01:28:04.793Z,45.55
2019-01-23T01:30:34.818Z,47.70
2019-01-23T01:33:05.290Z,51.25
2019-01-23T01:35:35.332Z,50.38
2019-01-23T01:38:06.032Z,43.95
2019-01-23T01:44:08.902Z,46.92
2019-01-23T01:46:39.186Z,46.23
2019-01-23T02:05:22.868Z,43.23
2019-01-23T02:07:53.143Z,52.83
2019-01-23T02:10:23.683Z,59.42
2019-01-23T02:12:54.282Z,40.73
2019-01-23T02:15:24.775Z,46.83
2019-01-23T02:17:55.060Z,54.27
2019-01-23T02:26:36.053Z,40.92
2019-01-23T02:29:09.547Z,40.98
2019-01-23T02:31:38.154Z,42.93
2019-01-23T02:37:58.248Z,52.40
2019-01-23T02:40:28.163Z,52.38
2019-01-23T02:42:58.254Z,38.02
2019-01-23T02:45:28.200Z,43.10
2019-01-23T02:47:58.266Z,45.85
2019-01-23T02:50:28.466Z,54.27
2019-01-23T02:52:58.381Z,45.28
2019-01-23T02:55:28.293Z,53.70
2019-01-23T02:57:58.281Z,48.73
2019-01-23T03:00:28.779Z,51.13
2019-01-23T03:02:58.851Z,41.60
2019-01-23T03:05:28.906Z,59.42
2019-01-23T03:07:58.793Z,43.80
2019-01-23T03:10:29.270Z,44.08
2019-01-23T03:13:00.682Z,39.35
2019-01-23T03:15:30.851Z,45.88
2019-01-23T03:18:01.251Z,43.75
2019-01-23T03:20:31.481Z,47.62
2019-01-23T03:23:01.425Z,41.83
2019-01-23T03:25:31.377Z,51.28
2019-01-23T03:28:01.355Z,42.23
2019-01-23T03:30:31.868Z,66.15
2019-01-23T03:33:02.134Z,54.55
2019-01-23T03:35:32.873Z,46.02
2019-01-23T03:38:03.117Z,48.70
2019-01-23T03:40:33.656Z,48.50
2019-01-23T03:43:03.596Z,44.58
2019-01-23T03:45:33.520Z,41.90
2019-01-23T03:48:03.581Z,53.45
2019-01-23T03:50:34.047Z,49.53
2019-01-23T03:53:04.838Z,53.33
2019-01-23T03:55:35.045Z,53.85
2019-01-23T03:58:05.344Z,53.75
2019-01-23T04:00:35.436Z,55.63
2019-01-23T04:03:05.988Z,57.55
2019-01-23T04:05:36.075Z,46.02
2019-01-23T04:08:06.157Z,43.17
2019-01-23T04:10:36.075Z,57.05
2019-01-23T04:13:06.299Z,49.15
2019-01-23T04:15:36.442Z,58.90
2019-01-23T04:18:06.829Z,51.77
2019-01-23T04:20:36.751Z,43.63
2019-01-23T04:23:07.195Z,56.02
2019-01-23T04:25:37.085Z,62.13
2019-01-23T04:28:06.976Z,46.02
2019-01-23T04:30:36.929Z,55.60
2019-01-23T04:33:07.059Z,44.67
2019-01-23T04:35:37.376Z,56.60
2019-01-23T04:38:07.794Z,57.20
2019-01-23T04:40:37.922Z,64.65
2019-01-23T04:43:08.063Z,50.38
2019-01-23T04:45:38.590Z,54.88
2019-01-23T04:48:08.470Z,52.78
2019-01-23T04:50:56.094Z,67.10
2019-01-23T04:53:32.445Z,69.70
2019-01-23T04:56:02.681Z,70.12
2019-01-23T04:58:32.680Z,55.08
2019-01-23T05:01:02.566Z,63.38
2019-01-23T05:03:32.714Z,72.10
2019-01-23T05:06:04.444Z,50.48
2019-01-23T05:08:34.602Z,67.05
2019-01-23T05:14:55.246Z,59.48
2019-01-23T05:17:25.163Z,47.10
2019-01-23T05:19:55.056Z,60.50
2019-01-23T05:22:24.991Z,43.85
2019-01-23T05:28:21.095Z,47.70
2019-01-23T05:38:23.484Z,47.08
2019-01-23T05:40:54.614Z,45.75
2019-01-23T05:43:24.961Z,52.33
2019-01-23T05:45:54.866Z,47.88
2019-01-23T05:48:24.778Z,57.33
2019-01-23T05:50:54.806Z,45.78
2019-01-23T05:53:24.807Z,49.80
2019-01-23T05:55:54.941Z,56.23
2019-01-23T05:58:24.852Z,47.70
2019-01-23T06:00:54.979Z,45.20
2019-01-23T06:03:25.121Z,57.95
2019-01-23T06:05:55.012Z,53.25
2019-01-23T06:08:25.021Z,50.65
2019-01-23T06:10:54.931Z,53.55
2019-01-23T06:17:15.717Z,48.95
2019-01-23T06:26:46.838Z,48.13
2019-01-23T06:29:16.769Z,49.00
2019-01-23T06:31:46.927Z,56.08
2019-01-23T06:34:17.056Z,51.45
2019-01-23T06:36:46.962Z,49.85
2019-01-23T06:39:16.843Z,55.83
2019-01-23T06:41:47.013Z,56.58
2019-01-23T06:44:16.974Z,49.35
2019-01-23T06:46:46.865Z,59.18
2019-01-23T06:49:16.742Z,52.75
2019-01-23T06:51:47.132Z,58.02
2019-01-23T06:54:17.271Z,59.67
2019-01-23T06:56:47.152Z,53.15
2019-01-23T06:59:17.067Z,53.98
2019-01-23T07:01:47.404Z,64.35
2019-01-23T07:04:17.290Z,47.17
2019-01-23T07:06:47.446Z,47.88
2019-01-23T07:09:17.337Z,66.10
2019-01-23T07:11:47.241Z,62.27
2019-01-23T07:14:17.113Z,60.75
2019-01-23T07:16:47.774Z,84.42
2019-01-23T07:19:17.773Z,53.85
2019-01-23T07:21:47.946Z,56.15
2019-01-23T07:24:18.072Z,59.80
2019-01-23T07:26:48.212Z,60.92
2019-01-23T07:29:18.629Z,41.90
2019-01-23T07:31:48.839Z,67.50
2019-01-23T07:34:18.771Z,56.00
2019-01-23T07:40:33.175Z,61.58
2019-01-23T07:43:03.447Z,62.80
2019-01-23T07:52:15.554Z,47.03
2019-01-23T07:54:45.466Z,60.25
2019-01-23T07:57:15.432Z,49.58
2019-01-23T07:59:45.347Z,53.20
2019-01-23T08:02:15.789Z,58.25
2019-01-23T08:04:45.768Z,50.63
2019-01-23T08:07:15.979Z,58.90
2019-01-23T08:09:46.146Z,59.35
2019-01-23T08:12:16.080Z,54.83
2019-01-23T08:14:46.122Z,50.95
2019-01-23T08:17:16.204Z,48.38
2019-01-23T08:19:46.075Z,54.67
2019-01-23T08:22:16.013Z,52.90
2019-01-23T08:24:45.907Z,52.60
2019-01-23T08:27:16.064Z,49.53
2019-01-23T08:29:46.259Z,55.80
2019-01-23T08:32:16.470Z,56.18
2019-01-23T08:34:46.419Z,60.58
2019-01-23T08:37:16.522Z,63.95
2019-01-23T08:39:46.829Z,48.95
2019-01-23T08:42:16.972Z,60.45
2019-01-23T08:48:38.550Z,50.63
2019-01-23T08:51:08.836Z,64.85
2019-01-23T08:53:39.218Z,53.40
2019-01-23T08:56:09.500Z,45.67
2019-01-23T08:58:39.391Z,46.90
2019-01-23T09:01:09.702Z,50.12
2019-01-23T09:03:39.614Z,54.50
2019-01-23T09:06:09.743Z,47.17
2019-01-23T09:08:39.953Z,46.77
2019-01-23T09:11:10.252Z,49.77
2019-01-23T09:13:40.181Z,43.10
2019-01-23T09:16:10.346Z,49.48
2019-01-23T09:18:40.578Z,54.80
2019-01-23T09:21:10.741Z,65.57
2019-01-23T09:23:40.893Z,61.55
2019-01-23T09:26:11.201Z,51.18
2019-01-23T09:28:41.160Z,62.50
2019-01-23T09:32:05.220Z,52.75
2019-01-23T09:35:01.086Z,54.80
2019-01-23T09:38:06.018Z,44.55
2019-01-23T09:41:17.485Z,48.38
2019-01-23T09:44:22.793Z,61.55
2019-01-23T09:47:17.154Z,53.38
2019-01-23T09:50:29.738Z,55.12
2019-01-23T09:53:18.869Z,54.03
2019-01-23T09:55:49.128Z,69.00
2019-01-23T09:58:19.037Z,50.65
2019-01-23T10:00:49.057Z,55.23
2019-01-23T10:03:23.111Z,45.52
2019-01-23T10:05:51.047Z,51.18
2019-01-23T10:08:20.973Z,44.30
2019-01-23T10:22:12.789Z,47.05
2019-01-23T10:24:43.058Z,45.85
2019-01-23T10:27:12.946Z,53.58
2019-01-23T10:29:42.932Z,60.33
2019-01-23T10:32:13.133Z,49.83
2019-01-23T10:34:43.051Z,54.50
2019-01-23T10:37:19.376Z,57.58
2019-01-23T10:39:44.646Z,42.85
2019-01-23T10:42:14.872Z,46.10
2019-01-23T10:44:44.813Z,48.30
2019-01-23T10:47:14.998Z,48.85
2019-01-23T10:49:44.910Z,47.88
2019-01-23T10:52:14.872Z,51.28
2019-01-23T10:54:44.813Z,51.80
2019-01-23T10:57:15.087Z,58.98
2019-01-23T10:59:45.525Z,38.30
2019-01-23T11:06:06.915Z,49.40
2019-01-23T11:08:36.809Z,45.58
2019-01-23T11:11:06.927Z,52.93
2019-01-23T11:13:36.898Z,45.67
2019-01-23T11:16:07.305Z,48.05
2019-01-23T11:18:37.279Z,54.75
2019-01-23T11:21:07.340Z,56.45
2019-01-23T11:23:37.573Z,52.75
2019-01-23T11:26:07.846Z,47.30
2019-01-23T11:28:38.214Z,49.33
2019-01-23T11:31:08.097Z,39.50
2019-01-23T11:33:38.213Z,44.03
2019-01-23T11:36:08.157Z,60.08
2019-01-23T11:38:38.047Z,53.38
2019-01-23T11:41:08.085Z,44.90
2019-01-23T11:43:38.325Z,51.17
2019-01-23T11:46:08.242Z,56.93
2019-01-23T11:48:38.761Z,59.63
2019-01-23T11:51:08.935Z,43.77
2019-01-23T11:53:38.992Z,50.80
2019-01-23T11:59:53.975Z,65.03
2019-01-23T12:02:30.561Z,68.80
2019-01-23T12:11:22.113Z,53.60
2019-01-23T12:13:52.017Z,55.37
2019-01-23T12:16:22.275Z,56.40
2019-01-23T12:18:52.693Z,56.37
2019-01-23T12:21:22.865Z,51.80
2019-01-23T12:23:58.224Z,60.35
2019-01-23T12:26:24.680Z,65.17
2019-01-23T12:28:54.644Z,51.58
2019-01-23T12:31:24.867Z,60.90
2019-01-23T12:33:54.769Z,49.67
2019-01-23T12:36:24.650Z,46.70
2019-01-23T12:38:55.343Z,56.80
2019-01-23T12:41:25.309Z,63.45
2019-01-23T12:43:55.367Z,59.13
2019-01-23T12:46:26.211Z,55.58
2019-01-23T12:48:56.180Z,64.85
2019-01-23T12:51:26.469Z,50.73
2019-01-23T12:57:47.631Z,53.63
2019-01-23T13:00:22.037Z,58.40
2019-01-23T13:02:52.756Z,55.15
2019-01-23T13:05:23.058Z,61.37
2019-01-23T13:07:53.677Z,48.48
2019-01-23T13:10:24.553Z,53.35
2019-01-23T13:12:55.137Z,49.85
2019-01-23T13:15:26.684Z,65.47
2019-01-23T13:17:56.971Z,71.07
2019-01-23T13:20:27.538Z,54.23
2019-01-23T13:22:57.595Z,62.33
2019-01-23T13:25:29.208Z,54.95
2019-01-23T13:28:02.111Z,53.10
2019-01-23T13:30:32.397Z,71.33
2019-01-23T13:33:03.187Z,77.23
2019-01-23T13:35:36.835Z,54.27
2019-01-23T13:38:10.905Z,68.85
2019-01-23T13:40:40.995Z,57.78
2019-01-23T13:43:11.197Z,60.67
2019-01-23T13:45:41.950Z,55.07
2019-01-23T13:48:12.451Z,62.73
2019-01-23T13:54:34.252Z,52.67
2019-01-23T13:57:42.118Z,54.67
2019-01-23T14:09:49.324Z,67.70
2019-01-23T14:12:20.064Z,61.48
2019-01-23T14:18:41.097Z,60.35
2019-01-23T14:21:11.456Z,64.67
2019-01-23T14:23:41.748Z,70.08
2019-01-23T14:26:11.830Z,65.08
2019-01-23T14:28:42.000Z,67.37
2019-01-23T14:31:12.157Z,56.08
2019-01-23T14:33:43.107Z,40.45
2019-01-23T14:36:13.706Z,46.07
2019-01-23T14:38:44.288Z,51.18
2019-01-23T14:45:06.573Z,47.80
2019-01-23T14:47:37.691Z,58.90
2019-01-23T14:50:11.094Z,68.37
2019-01-23T14:52:41.786Z,55.03
2019-01-23T14:55:12.897Z,54.95
2019-01-23T14:57:43.966Z,58.35
2019-01-23T15:00:18.768Z,52.33
2019-01-23T15:08:57.540Z,55.00
2019-01-23T15:11:28.697Z,49.35
2019-01-23T15:13:59.995Z,57.15
2019-01-23T15:16:31.210Z,56.05
2019-01-23T15:19:02.132Z,57.65
2019-01-23T15:21:33.017Z,54.53
2019-01-23T15:24:04.284Z,52.23
2019-01-23T15:26:35.102Z,59.63
2019-01-23T15:29:06.481Z,49.90
2019-01-23T15:31:38.087Z,47.62
2019-01-23T15:34:08.844Z,44.67
2019-01-23T15:36:39.728Z,60.50
2019-01-23T15:39:11.366Z,53.17
2019-01-23T15:45:33.768Z,51.23
2019-01-23T15:48:05.366Z,58.20
2019-01-23T15:50:37.136Z,55.83
2019-01-23T15:53:08.595Z,42.45
2019-01-23T15:55:43.931Z,42.35
2019-01-23T15:58:15.644Z,33.80
2019-01-23T16:00:47.018Z,50.15
2019-01-23T16:03:18.319Z,48.45
2019-01-23T16:05:50.416Z,54.35
2019-01-23T16:12:16.261Z,43.25
2019-01-23T16:22:00.643Z,51.00
2019-01-23T16:24:31.776Z,60.88
2019-01-23T16:34:21.261Z,48.58
2019-01-23T16:36:52.677Z,53.40
2019-01-23T16:39:25.158Z,51.75
2019-01-23T16:45:47.385Z,49.70
2019-01-23T16:48:19.024Z,51.80
2019-01-23T16:50:51.289Z,54.70
2019-01-23T16:57:13.876Z,53.83
2019-01-23T16:59:45.318Z,53.10
2019-01-23T17:02:16.858Z,66.60
2019-01-23T17:08:39.945Z,59.70
2019-01-23T17:11:11.652Z,59.18
2019-01-23T17:20:22.345Z,41.75
2019-01-23T17:37:49.732Z,62.58
2019-01-23T17:40:21.935Z,56.42
2019-01-23T17:42:53.643Z,69.80
2019-01-23T17:45:28.979Z,65.03
2019-01-23T17:48:00.704Z,69.85
2019-01-23T17:50:32.944Z,53.70
2019-01-23T17:53:04.511Z,67.37
2019-01-23T17:55:39.508Z,65.42
2019-01-23T17:58:14.734Z,76.82
2019-01-23T18:00:56.712Z,89.50
2019-01-23T18:03:28.729Z,77.50
2019-01-23T18:09:45.747Z,61.98
2019-01-23T18:19:37.360Z,69.70
2019-01-23T18:22:10.558Z,88.33
2019-01-23T18:24:42.854Z,64.00
2019-01-23T18:27:15.375Z,71.30
2019-01-23T18:29:48.329Z,61.55
2019-01-23T18:32:20.867Z,67.62
2019-01-23T18:36:14.634Z,75.12
2019-01-23T18:45:43.542Z,79.87
2019-01-23T18:48:58.453Z,70.92
2019-01-23T18:52:06.283Z,79.70
2019-01-23T18:54:38.279Z,101.50
2019-01-23T18:57:13.594Z,85.85
2019-01-23T18:59:45.843Z,91.97
2019-01-23T19:02:17.894Z,78.30
2019-01-23T19:04:49.985Z,92.15
2019-01-23T19:07:22.465Z,80.45
2019-01-23T19:09:54.793Z,82.72
2019-01-23T19:12:27.697Z,88.20
2019-01-23T19:15:00.197Z,89.97
2019-01-23T19:17:32.524Z,71.97
2019-01-23T19:20:05.591Z,103.58
2019-01-23T19:26:22.868Z,87.10
2019-01-23T19:28:57.463Z,84.30
2019-01-23T19:31:29.812Z,90.47
2019-01-23T19:37:47.772Z,80.17
2019-01-23T19:40:20.256Z,86.37
2019-01-23T19:42:52.523Z,80.97
2019-01-23T19:45:27.534Z,79.07
2019-01-23T20:02:58.076Z,62.70
2019-01-23T20:05:32.323Z,73.65
2019-01-23T20:08:04.883Z,103.67
2019-01-23T20:10:37.176Z,73.15
2019-01-23T20:17:00.900Z,79.35
2019-01-23T20:19:33.677Z,71.30
2019-01-23T20:22:05.930Z,78.07
2019-01-23T20:24:39.132Z,68.55
2019-01-23T20:27:11.060Z,78.57
2019-01-23T20:33:37.781Z,79.00
2019-01-23T20:36:10.004Z,68.72
2019-01-23T20:38:42.337Z,72.50
2019-01-23T20:41:16.059Z,75.15
2019-01-23T20:43:51.002Z,79.67
2019-01-23T20:46:23.194Z,70.65
2019-01-23T20:48:55.133Z,62.73
2019-01-23T20:51:27.080Z,88.05
2019-01-23T20:53:59.149Z,69.03
2019-01-23T21:00:25.162Z,78.00
2019-01-23T21:02:56.925Z,74.50
2019-01-23T21:05:29.339Z,62.70
2019-01-23T21:08:01.453Z,69.77
2019-01-23T21:10:33.070Z,65.47
2019-01-23T21:13:04.968Z,70.80
2019-01-23T21:15:36.915Z,75.30
2019-01-23T21:18:09.268Z,65.60
2019-01-23T21:20:43.284Z,87.60
2019-01-23T21:23:17.825Z,68.47
2019-01-23T21:25:49.649Z,70.03
2019-01-23T21:28:21.078Z,51.90
2019-01-23T21:30:52.859Z,59.23
2019-01-23T21:33:26.323Z,59.10
2019-01-23T21:35:58.340Z,78.10
2019-01-23T21:38:30.076Z,78.50
2019-01-23T21:41:03.708Z,54.53
2019-01-23T21:43:35.067Z,76.35
2019-01-23T21:46:06.442Z,57.93
2019-01-23T21:48:37.943Z,83.05
2019-01-23T21:51:09.983Z,59.95
2019-01-23T21:53:41.910Z,81.15
2019-01-23T21:56:13.817Z,83.17
2019-01-23T21:58:44.948Z,67.67
2019-01-23T22:01:16.120Z,69.80
2019-01-23T22:03:49.328Z,72.72
2019-01-23T22:10:11.960Z,63.90
2019-01-23T22:12:43.848Z,66.67
2019-01-23T22:15:17.462Z,70.65
2019-01-23T22:17:48.198Z,76.70
2019-01-23T22:24:03.841Z,64.05
2019-01-23T22:26:34.711Z,70.57
2019-01-23T22:29:06.067Z,68.65
2019-01-23T22:31:37.002Z,80.85
2019-01-23T22:34:07.613Z,74.85
2019-01-23T22:36:38.455Z,73.62
2019-01-23T22:43:00.090Z,71.17
2019-01-23T22:45:30.719Z,68.20
2019-01-23T22:48:00.995Z,74.12
2019-01-23T22:50:31.291Z,50.98
2019-01-23T22:53:01.358Z,63.60
2019-01-23T22:55:31.263Z,71.17
2019-01-23T22:58:01.725Z,81.70
2019-01-23T23:01:17.434Z,72.50
2019-01-23T23:03:47.968Z,59.20
2019-01-23T23:06:18.195Z,86.08
2019-01-23T23:12:40.218Z,66.07
2019-01-23T23:15:10.503Z,59.90
2019-01-23T23:17:40.543Z,69.32
2019-01-23T23:20:10.861Z,85.87
2019-01-23T23:22:41.080Z,77.17
2019-01-23T23:25:12.220Z,75.85
2019-01-23T23:27:43.875Z,70.80
2019-01-23T23:30:15.071Z,56.48
2019-01-23T23:32:45.354Z,59.88
2019-01-23T23:35:15.390Z,84.42
2019-01-23T23:37:45.412Z,57.00
2019-01-23T23:40:16.160Z,55.25
2019-01-23T23:42:46.233Z,46.63
2019-01-23T23:45:16.575Z,54.00
2019-01-23T23:47:46.646Z,77.78
2019-01-23T23:50:16.850Z,85.57
2019-01-23T23:52:47.084Z,68.47
2019-01-23T23:55:17.390Z,63.75
2019-01-23T23:57:47.664Z,83.55
